createdAt,value
2018-10-19T00:02:20.564Z,13.63
2018-10-19T00:04:49.150Z,13.61
2018-10-19T00:07:17.834Z,13.59
2018-10-19T00:09:46.526Z,13.49
2018-10-19T00:12:15.132Z,13.43
2018-10-19T00:14:43.816Z,13.38
2018-10-19T00:17:12.503Z,13.33
2018-10-19T00:19:41.103Z,13.28
2018-10-19T00:22:09.704Z,13.23
2018-10-19T00:24:38.551Z,13.18
2018-10-19T00:27:07.270Z,13.07
2018-10-19T00:29:35.864Z,13.02
2018-10-19T00:32:04.533Z,12.95
2018-10-19T00:34:33.064Z,12.91
2018-10-19T00:37:01.630Z,12.86
2018-10-19T00:39:30.312Z,12.79
2018-10-19T00:41:58.894Z,12.78
2018-10-19T00:44:27.564Z,12.74
2018-10-19T00:46:56.477Z,12.72
2018-10-19T00:49:25.002Z,12.66
2018-10-19T00:51:53.745Z,12.66
2018-10-19T00:54:22.262Z,12.57
2018-10-19T00:56:50.891Z,12.57
2018-10-19T00:59:19.430Z,12.55
2018-10-19T01:01:48.137Z,12.54
2018-10-19T01:04:16.728Z,12.53
2018-10-19T01:06:45.332Z,12.53
2018-10-19T01:09:13.875Z,12.53
2018-10-19T01:11:45.213Z,12.54
2018-10-19T01:14:13.795Z,12.49
2018-10-19T01:16:42.392Z,12.47
2018-10-19T01:19:10.950Z,12.44
2018-10-19T01:21:39.572Z,12.41
2018-10-19T01:24:08.106Z,12.40
2018-10-19T01:26:36.779Z,12.38
2018-10-19T01:29:05.653Z,12.36
2018-10-19T01:31:34.471Z,12.33
2018-10-19T01:34:03.588Z,12.28
2018-10-19T01:36:37.476Z,12.31
2018-10-19T01:39:07.513Z,12.21
2018-10-19T01:41:35.914Z,12.23
2018-10-19T01:44:04.721Z,12.23
2018-10-19T01:46:33.319Z,12.22
2018-10-19T01:49:01.918Z,12.21
2018-10-19T01:51:31.160Z,12.21
2018-10-19T01:53:59.715Z,12.18
2018-10-19T01:56:28.235Z,12.17
2018-10-19T01:58:56.956Z,12.15
2018-10-19T02:01:25.530Z,12.15
2018-10-19T02:03:54.055Z,12.13
2018-10-19T02:06:22.612Z,12.09
2018-10-19T02:08:51.162Z,12.08
2018-10-19T02:11:19.852Z,12.03
2018-10-19T02:13:48.633Z,11.97
2018-10-19T02:16:17.424Z,11.98
2018-10-19T02:18:46.028Z,11.96
2018-10-19T02:21:14.699Z,11.92
2018-10-19T02:23:43.199Z,11.90
2018-10-19T02:26:11.853Z,11.90
2018-10-19T02:28:40.414Z,11.90
2018-10-19T02:31:09.049Z,11.86
2018-10-19T02:33:45.589Z,11.84
2018-10-19T02:36:14.783Z,11.84
2018-10-19T02:38:44.535Z,11.84
2018-10-19T02:41:14.649Z,11.82
2018-10-19T02:43:43.258Z,11.77
2018-10-19T02:46:11.849Z,11.67
2018-10-19T02:48:40.556Z,11.57
2018-10-19T02:51:15.778Z,11.51
2018-10-19T02:53:44.277Z,11.39
2018-10-19T02:56:12.869Z,11.37
2018-10-19T02:58:41.521Z,11.33
2018-10-19T03:01:10.057Z,11.31
2018-10-19T03:03:38.619Z,11.32
2018-10-19T03:06:07.580Z,11.29
2018-10-19T03:08:36.370Z,11.30
2018-10-19T03:11:05.293Z,11.32
2018-10-19T03:13:34.064Z,11.31
2018-10-19T03:16:05.574Z,11.30
2018-10-19T03:18:34.166Z,11.25
2018-10-19T03:21:03.554Z,11.25
2018-10-19T03:23:32.114Z,11.22
2018-10-19T03:26:00.836Z,11.18
2018-10-19T03:28:29.487Z,11.15
2018-10-19T03:30:58.041Z,11.14
2018-10-19T03:33:26.650Z,11.07
2018-10-19T03:35:55.209Z,11.07
2018-10-19T03:38:23.815Z,11.02
2018-10-19T03:40:52.377Z,10.98
2018-10-19T03:43:20.953Z,11.00
2018-10-19T03:45:49.635Z,10.95
2018-10-19T03:48:18.173Z,10.97
2018-10-19T03:50:46.821Z,10.94
2018-10-19T03:53:15.412Z,10.88
2018-10-19T03:55:43.972Z,10.85
2018-10-19T03:58:12.539Z,10.81
2018-10-19T04:00:41.147Z,10.80
2018-10-19T04:03:09.791Z,10.76
2018-10-19T04:05:38.262Z,10.72
2018-10-19T04:08:06.929Z,10.67
2018-10-19T04:10:35.505Z,10.68
2018-10-19T04:13:04.192Z,10.68
2018-10-19T04:15:32.798Z,10.66
2018-10-19T04:18:01.748Z,10.66
2018-10-19T04:20:30.338Z,10.63
2018-10-19T04:23:03.358Z,10.57
2018-10-19T04:25:31.818Z,10.52
2018-10-19T04:28:00.569Z,10.50
2018-10-19T04:30:29.092Z,10.50
2018-10-19T04:32:57.742Z,10.43
2018-10-19T04:35:26.364Z,10.40
2018-10-19T04:37:54.886Z,10.39
2018-10-19T04:40:24.186Z,10.41
2018-10-19T04:42:52.786Z,10.44
2018-10-19T04:45:21.399Z,10.47
2018-10-19T04:47:50.174Z,10.35
2018-10-19T04:50:18.623Z,10.25
2018-10-19T04:52:47.181Z,10.24
2018-10-19T04:55:19.336Z,10.29
2018-10-19T04:57:47.991Z,10.29
2018-10-19T05:00:23.416Z,10.34
2018-10-19T05:02:52.764Z,10.33
2018-10-19T05:05:21.647Z,10.29
2018-10-19T05:07:50.335Z,10.13
2018-10-19T05:10:19.306Z,10.13
2018-10-19T05:12:47.957Z,10.11
2018-10-19T05:15:16.651Z,10.10
2018-10-19T05:17:45.315Z,10.12
2018-10-19T05:20:14.178Z,10.13
2018-10-19T05:22:42.737Z,10.08
2018-10-19T05:25:12.850Z,10.04
2018-10-19T05:27:41.661Z,10.02
2018-10-19T05:30:12.275Z,9.93
2018-10-19T05:32:41.827Z,9.84
2018-10-19T05:35:10.922Z,9.83
2018-10-19T05:37:40.486Z,9.81
2018-10-19T05:40:10.772Z,9.80
2018-10-19T05:42:39.906Z,9.80
2018-10-19T05:45:10.275Z,9.82
2018-10-19T05:47:38.960Z,9.83
2018-10-19T05:50:08.941Z,9.89
2018-10-19T05:52:38.122Z,9.91
2018-10-19T05:55:07.072Z,9.85
2018-10-19T05:57:35.972Z,9.76
2018-10-19T06:00:05.103Z,9.77
2018-10-19T06:02:33.930Z,9.78
2018-10-19T06:05:03.269Z,9.75
2018-10-19T06:07:31.961Z,9.75
2018-10-19T06:10:00.603Z,9.73
2018-10-19T06:12:29.273Z,9.77
2018-10-19T06:14:57.920Z,9.80
2018-10-19T06:17:26.635Z,9.83
2018-10-19T06:19:55.372Z,9.81
2018-10-19T06:22:24.061Z,9.83
2018-10-19T06:24:52.670Z,9.83
2018-10-19T06:27:21.271Z,9.86
2018-10-19T06:29:49.996Z,9.88
2018-10-19T06:32:18.715Z,9.85
2018-10-19T06:34:47.212Z,9.82
2018-10-19T06:37:16.202Z,9.79
2018-10-19T06:39:44.900Z,9.81
2018-10-19T06:42:13.505Z,9.79
2018-10-19T06:44:42.185Z,9.71
2018-10-19T06:47:11.028Z,9.65
2018-10-19T06:49:39.558Z,9.65
2018-10-19T06:52:08.204Z,9.65
2018-10-19T06:54:36.863Z,9.64
2018-10-19T06:57:05.784Z,9.71
2018-10-19T06:59:34.772Z,9.69
2018-10-19T07:02:04.375Z,9.73
2018-10-19T07:04:32.957Z,9.82
2018-10-19T07:07:02.693Z,9.85
2018-10-19T07:09:31.368Z,9.84
2018-10-19T07:12:00.137Z,9.89
2018-10-19T07:14:28.855Z,9.96
2018-10-19T07:16:57.535Z,9.97
2018-10-19T07:19:26.218Z,9.99
2018-10-19T07:21:54.842Z,10.02
2018-10-19T07:24:23.535Z,10.08
2018-10-19T07:26:52.499Z,10.14
2018-10-19T07:29:21.279Z,10.21
2018-10-19T07:31:50.388Z,10.27
2018-10-19T07:34:19.508Z,10.35
2018-10-19T07:36:48.377Z,10.41
2018-10-19T07:39:17.079Z,10.49
2018-10-19T07:41:45.710Z,10.60
2018-10-19T07:44:14.481Z,10.62
2018-10-19T07:46:43.365Z,10.64
2018-10-19T07:49:12.333Z,10.68
2018-10-19T07:51:42.782Z,10.71
2018-10-19T07:54:11.550Z,10.74
2018-10-19T07:56:43.415Z,10.76
2018-10-19T07:59:12.704Z,10.81
2018-10-19T08:01:42.016Z,10.86
2018-10-19T08:04:10.827Z,10.90
2018-10-19T08:06:39.772Z,10.92
2018-10-19T08:09:10.252Z,10.97
2018-10-19T08:11:39.564Z,11.02
2018-10-19T08:14:08.238Z,11.03
2018-10-19T08:16:36.959Z,11.02
2018-10-19T08:19:05.594Z,11.06
2018-10-19T08:21:34.188Z,11.10
2018-10-19T08:24:04.065Z,11.15
2018-10-19T08:26:33.423Z,11.23
2018-10-19T08:29:02.822Z,11.30
2018-10-19T08:31:31.744Z,11.38
2018-10-19T08:34:00.415Z,11.44
2018-10-19T08:36:29.057Z,11.46
2018-10-19T08:38:57.893Z,11.52
2018-10-19T08:41:26.607Z,11.59
2018-10-19T08:43:55.262Z,11.67
2018-10-19T08:46:29.370Z,11.73
2018-10-19T08:48:58.279Z,11.78
2018-10-19T08:51:26.847Z,11.83
2018-10-19T08:53:55.658Z,11.88
2018-10-19T08:56:24.325Z,11.93
2018-10-19T08:58:53.247Z,11.99
2018-10-19T09:01:22.025Z,12.06
2018-10-19T09:03:51.057Z,12.08
2018-10-19T09:06:19.740Z,12.14
2018-10-19T09:08:48.417Z,12.22
2018-10-19T09:11:18.125Z,12.32
2018-10-19T09:13:46.790Z,12.42
2018-10-19T09:16:15.444Z,12.50
2018-10-19T09:18:44.169Z,12.54
2018-10-19T09:21:13.069Z,12.58
2018-10-19T09:23:41.743Z,12.68
2018-10-19T09:26:10.883Z,12.78
2018-10-19T09:28:39.728Z,12.87
2018-10-19T09:31:08.426Z,12.97
2018-10-19T09:33:38.449Z,13.06
2018-10-19T09:36:07.195Z,13.13
2018-10-19T09:38:35.877Z,13.19
2018-10-19T09:41:05.313Z,13.22
2018-10-19T09:43:34.801Z,13.31
2018-10-19T09:46:04.407Z,13.36
2018-10-19T09:48:33.062Z,13.45
2018-10-19T09:51:02.960Z,13.39
2018-10-19T09:53:31.814Z,13.35
2018-10-19T09:56:00.698Z,13.31
2018-10-19T09:58:30.340Z,13.50
2018-10-19T10:00:59.093Z,13.63
2018-10-19T10:03:28.369Z,13.71
2018-10-19T10:05:57.016Z,13.78
2018-10-19T10:08:25.862Z,13.80
2018-10-19T10:10:54.862Z,13.90
2018-10-19T10:13:25.115Z,13.99
2018-10-19T10:15:54.904Z,14.04
2018-10-19T10:18:23.635Z,14.08
2018-10-19T10:20:52.878Z,14.15
2018-10-19T10:23:22.090Z,14.14
2018-10-19T10:25:51.842Z,14.18
2018-10-19T10:28:20.507Z,14.26
2018-10-19T10:30:49.254Z,14.28
2018-10-19T10:33:18.067Z,14.30
2018-10-19T10:35:46.794Z,14.34
2018-10-19T10:38:15.436Z,14.39
2018-10-19T10:40:44.157Z,14.46
2018-10-19T10:43:13.072Z,14.48
2018-10-19T10:45:42.763Z,14.52
2018-10-19T10:48:12.232Z,14.64
2018-10-19T10:50:40.910Z,14.64
2018-10-19T10:53:09.664Z,14.78
2018-10-19T10:55:38.587Z,14.85
2018-10-19T10:58:07.639Z,14.88
2018-10-19T11:00:36.355Z,14.97
2018-10-19T11:03:05.095Z,14.95
2018-10-19T11:05:33.962Z,15.02
2018-10-19T11:08:03.555Z,15.14
2018-10-19T11:10:32.353Z,15.21
2018-10-19T11:13:01.358Z,15.32
2018-10-19T11:15:30.281Z,15.37
2018-10-19T11:17:59.230Z,15.45
2018-10-19T11:20:28.027Z,15.46
2018-10-19T11:22:56.678Z,15.56
2018-10-19T11:25:26.395Z,15.63
2018-10-19T11:27:55.161Z,15.69
2018-10-19T11:30:23.820Z,15.73
2018-10-19T11:32:52.766Z,15.79
2018-10-19T11:35:21.494Z,15.87
2018-10-19T11:37:50.251Z,15.95
2018-10-19T11:40:26.973Z,15.98
2018-10-19T11:42:56.991Z,16.02
2018-10-19T11:45:27.729Z,16.08
2018-10-19T11:47:56.661Z,16.10
2018-10-19T11:50:25.302Z,16.02
2018-10-19T11:52:53.879Z,16.04
2018-10-19T11:55:22.624Z,16.13
2018-10-19T11:57:52.443Z,16.23
2018-10-19T12:00:21.129Z,16.31
2018-10-19T12:02:49.956Z,16.35
2018-10-19T12:05:18.555Z,16.44
2018-10-19T12:07:47.336Z,16.46
2018-10-19T12:10:16.398Z,16.51
2018-10-19T12:12:45.842Z,16.51
2018-10-19T12:15:16.151Z,16.52
2018-10-19T12:17:45.482Z,16.55
2018-10-19T12:20:16.017Z,16.65
2018-10-19T12:22:44.712Z,16.72
2018-10-19T12:25:14.298Z,16.85
2018-10-19T12:27:42.999Z,16.97
2018-10-19T12:30:13.821Z,16.91
2018-10-19T12:32:43.469Z,16.94
2018-10-19T12:35:13.548Z,17.02
2018-10-19T12:37:42.202Z,17.10
2018-10-19T12:40:12.004Z,17.15
2018-10-19T12:42:40.764Z,17.18
2018-10-19T12:45:20.758Z,17.25
2018-10-19T12:47:49.385Z,17.35
2018-10-19T12:50:18.939Z,17.39
2018-10-19T12:52:48.083Z,17.40
2018-10-19T12:55:16.805Z,17.46
2018-10-19T12:57:45.494Z,17.21
2018-10-19T13:00:17.497Z,17.07
2018-10-19T13:02:47.782Z,17.00
2018-10-19T13:05:16.616Z,16.90
2018-10-19T13:07:45.209Z,16.73
2018-10-19T13:10:13.893Z,16.63
2018-10-19T13:12:42.492Z,16.40
2018-10-19T13:15:11.156Z,16.30
2018-10-19T13:17:40.001Z,16.23
2018-10-19T13:20:08.701Z,16.12
2018-10-19T13:22:37.326Z,16.03
2018-10-19T13:25:06.026Z,15.95
2018-10-19T13:27:34.741Z,15.91
2018-10-19T13:30:03.711Z,15.86
2018-10-19T13:32:32.644Z,15.83
2018-10-19T13:35:01.615Z,15.77
2018-10-19T13:37:30.438Z,15.72
2018-10-19T13:39:59.200Z,15.70
2018-10-19T13:42:27.845Z,15.65
2018-10-19T13:44:56.381Z,15.60
2018-10-19T13:47:24.985Z,15.57
2018-10-19T13:49:53.872Z,15.58
2018-10-19T13:52:22.613Z,15.61
2018-10-19T13:54:51.393Z,15.61
2018-10-19T13:57:20.084Z,15.62
2018-10-19T13:59:48.828Z,15.59
2018-10-19T14:02:18.140Z,15.62
2018-10-19T14:04:46.748Z,15.55
2018-10-19T14:07:15.570Z,15.44
2018-10-19T14:09:44.196Z,15.35
2018-10-19T14:12:12.816Z,15.25
2018-10-19T14:14:41.347Z,15.27
2018-10-19T14:17:10.122Z,15.25
2018-10-19T14:19:38.752Z,15.25
2018-10-19T14:22:07.356Z,15.25
2018-10-19T14:24:36.007Z,15.25
2018-10-19T14:27:04.982Z,15.20
2018-10-19T14:29:33.653Z,15.15
2018-10-19T14:32:02.449Z,15.12
2018-10-19T14:34:31.080Z,15.10
2018-10-19T14:36:59.756Z,15.10
2018-10-19T14:39:28.536Z,15.08
2018-10-19T14:41:57.252Z,15.04
2018-10-19T14:44:25.970Z,15.05
2018-10-19T14:46:54.574Z,15.04
2018-10-19T14:49:23.382Z,14.99
2018-10-19T14:51:52.084Z,14.98
2018-10-19T14:54:20.830Z,14.97
2018-10-19T14:56:49.525Z,14.96
2018-10-19T14:59:18.450Z,14.93
2018-10-19T15:01:47.126Z,14.90
2018-10-19T15:04:15.905Z,14.90
2018-10-19T15:06:44.718Z,14.85
2018-10-19T15:09:13.509Z,14.84
2018-10-19T15:11:42.705Z,14.84
2018-10-19T15:14:11.692Z,14.84
2018-10-19T15:16:40.719Z,14.81
2018-10-19T15:19:09.485Z,14.78
2018-10-19T15:21:38.121Z,14.75
2018-10-19T15:24:06.906Z,14.71
2018-10-19T15:26:35.504Z,14.68
2018-10-19T15:29:04.404Z,14.67
2018-10-19T15:31:33.918Z,14.60
2018-10-19T15:34:04.235Z,14.59
2018-10-19T15:36:33.545Z,14.54
2018-10-19T15:39:02.798Z,14.55
2018-10-19T15:41:31.515Z,14.54
2018-10-19T15:44:00.250Z,14.52
2018-10-19T15:46:28.956Z,14.48
2018-10-19T15:48:57.648Z,14.45
2018-10-19T15:51:26.337Z,14.41
2018-10-19T15:53:55.062Z,14.37
2018-10-19T15:56:23.712Z,14.34
2018-10-19T15:58:52.396Z,14.28
2018-10-19T16:01:21.008Z,14.25
2018-10-19T16:03:49.893Z,14.20
2018-10-19T16:06:18.660Z,14.18
2018-10-19T16:08:47.443Z,14.12
2018-10-19T16:11:16.173Z,14.08
2018-10-19T16:13:45.060Z,14.03
2018-10-19T16:16:13.843Z,13.98
2018-10-19T16:18:42.451Z,13.93
2018-10-19T16:21:11.455Z,13.92
2018-10-19T16:23:40.160Z,13.87
2018-10-19T16:26:08.814Z,13.86
2018-10-19T16:28:37.452Z,13.84
2018-10-19T16:31:06.126Z,13.79
2018-10-19T16:33:34.823Z,13.75
2018-10-19T16:36:05.991Z,13.72
2018-10-19T16:38:34.697Z,13.69
2018-10-19T16:41:03.930Z,13.66
2018-10-19T16:43:32.589Z,13.62
2018-10-19T16:46:02.654Z,13.59
2018-10-19T16:48:31.326Z,13.54
2018-10-19T16:50:59.926Z,13.50
2018-10-19T16:53:29.524Z,13.47
2018-10-19T16:55:58.175Z,13.44
2018-10-19T16:58:27.310Z,13.44
2018-10-19T17:00:55.992Z,13.44
2018-10-19T17:03:24.716Z,13.46
2018-10-19T17:05:53.477Z,13.44
2018-10-19T17:08:22.726Z,13.43
2018-10-19T17:10:51.440Z,13.43
2018-10-19T17:13:20.388Z,13.39
2018-10-19T17:15:49.989Z,13.38
2018-10-19T17:18:19.151Z,13.34
2018-10-19T17:20:48.516Z,13.31
2018-10-19T17:23:17.303Z,13.28
2018-10-19T17:25:46.812Z,13.23
2018-10-19T17:28:15.594Z,13.19
2018-10-19T17:30:44.152Z,13.16
2018-10-19T17:33:13.013Z,13.13
2018-10-19T17:35:42.579Z,13.09
2018-10-19T17:38:11.370Z,13.03
2018-10-19T17:40:40.070Z,12.95
2018-10-19T17:43:09.245Z,12.93
2018-10-19T17:45:38.811Z,12.89
2018-10-19T17:48:14.309Z,12.86
2018-10-19T17:50:42.920Z,12.79
2018-10-19T17:53:11.583Z,12.74
2018-10-19T17:55:40.314Z,12.69
2018-10-19T17:58:09.086Z,12.65
2018-10-19T18:00:37.928Z,12.59
2018-10-19T18:03:06.701Z,12.58
2018-10-19T18:05:35.977Z,12.57
2018-10-19T18:08:04.755Z,12.53
2018-10-19T18:10:33.678Z,12.52
2018-10-19T18:13:03.078Z,12.48
2018-10-19T18:15:32.259Z,12.44
2018-10-19T18:18:01.039Z,12.41
2018-10-19T18:20:30.309Z,12.38
2018-10-19T18:22:59.353Z,12.31
2018-10-19T18:25:28.100Z,12.26
2018-10-19T18:27:57.026Z,12.29
2018-10-19T18:30:26.203Z,12.31
2018-10-19T18:32:54.965Z,12.34
2018-10-19T18:35:23.701Z,12.39
2018-10-19T18:37:53.423Z,12.41
2018-10-19T18:40:22.108Z,12.40
2018-10-19T18:42:50.821Z,12.40
2018-10-19T18:45:19.724Z,12.41
2018-10-19T18:47:48.661Z,12.45
2018-10-19T18:50:18.466Z,12.49
2018-10-19T18:52:47.195Z,12.49
2018-10-19T18:55:15.987Z,12.49
2018-10-19T18:57:44.701Z,12.48
2018-10-19T19:00:13.828Z,12.46
2018-10-19T19:02:42.583Z,12.45
2018-10-19T19:05:11.547Z,12.43
2018-10-19T19:07:40.422Z,12.43
2018-10-19T19:10:13.516Z,12.40
2018-10-19T19:12:43.079Z,12.41
2018-10-19T19:15:12.356Z,12.43
2018-10-19T19:17:41.337Z,12.39
2018-10-19T19:20:15.768Z,12.36
2018-10-19T19:22:44.861Z,12.34
2018-10-19T19:25:20.993Z,12.31
2018-10-19T19:27:49.788Z,12.32
2018-10-19T19:30:18.527Z,12.31
2018-10-19T19:32:52.441Z,12.28
2018-10-19T19:35:21.152Z,12.27
2018-10-19T19:37:49.865Z,12.26
2018-10-19T19:40:18.962Z,12.26
2018-10-19T19:42:56.000Z,12.27
2018-10-19T19:45:24.780Z,12.27
2018-10-19T19:47:58.776Z,12.26
2018-10-19T19:50:27.415Z,12.24
2018-10-19T19:52:56.167Z,12.27
2018-10-19T19:55:25.601Z,12.26
2018-10-19T19:57:54.372Z,12.24
2018-10-19T20:00:23.731Z,12.24
2018-10-19T20:02:52.811Z,12.23
2018-10-19T20:05:21.698Z,12.23
2018-10-19T20:07:50.452Z,12.27
2018-10-19T20:10:19.092Z,12.27
2018-10-19T20:12:47.837Z,12.25
2018-10-19T20:15:16.525Z,12.20
2018-10-19T20:17:45.475Z,12.17
2018-10-19T20:20:14.100Z,12.16
2018-10-19T20:22:43.291Z,12.15
2018-10-19T20:25:13.417Z,12.12
2018-10-19T20:27:42.253Z,12.11
2018-10-19T20:30:12.798Z,12.08
2018-10-19T20:32:41.613Z,12.02
2018-10-19T20:35:11.610Z,11.93
2018-10-19T20:37:40.313Z,11.83
2018-10-19T20:40:09.115Z,11.76
2018-10-19T20:42:37.793Z,11.73
2018-10-19T20:45:07.354Z,11.67
2018-10-19T20:47:35.972Z,11.59
2018-10-19T20:50:04.635Z,11.55
2018-10-19T20:52:33.250Z,11.46
2018-10-19T20:55:01.920Z,11.43
2018-10-19T20:57:30.635Z,11.40
2018-10-19T20:59:59.532Z,11.32
2018-10-19T21:02:28.311Z,11.29
2018-10-19T21:04:57.072Z,11.26
2018-10-19T21:07:25.951Z,11.27
2018-10-19T21:09:54.791Z,11.23
2018-10-19T21:12:23.628Z,11.17
2018-10-19T21:14:52.321Z,11.13
2018-10-19T21:17:21.215Z,11.08
2018-10-19T21:19:49.895Z,11.04
2018-10-19T21:22:18.459Z,11.07
2018-10-19T21:24:48.023Z,11.05
2018-10-19T21:27:16.670Z,10.96
2018-10-19T21:29:46.379Z,10.90
2018-10-19T21:32:15.383Z,10.86
2018-10-19T21:34:44.095Z,10.86
2018-10-19T21:37:12.780Z,10.86
2018-10-19T21:39:41.418Z,10.83
2018-10-19T21:42:10.078Z,10.82
2018-10-19T21:44:38.754Z,10.79
2018-10-19T21:47:07.594Z,10.72
2018-10-19T21:49:36.294Z,10.69
2018-10-19T21:52:05.105Z,10.64
2018-10-19T21:54:33.823Z,10.64
2018-10-19T21:57:03.462Z,10.65
2018-10-19T21:59:32.214Z,10.69
2018-10-19T22:02:03.057Z,10.70
2018-10-19T22:04:31.843Z,10.64
2018-10-19T22:07:00.525Z,10.67
2018-10-19T22:09:29.650Z,10.69
2018-10-19T22:11:58.682Z,10.71
2018-10-19T22:14:27.841Z,10.66
2018-10-19T22:16:56.851Z,10.66
2018-10-19T22:19:25.602Z,10.61
2018-10-19T22:21:54.264Z,10.55
2018-10-19T22:24:23.189Z,10.49
2018-10-19T22:26:52.007Z,10.43
2018-10-19T22:29:20.789Z,10.40
2018-10-19T22:31:49.581Z,10.40
2018-10-19T22:34:18.509Z,10.41
2018-10-19T22:36:47.253Z,10.45
2018-10-19T22:39:16.567Z,10.45
2018-10-19T22:41:45.262Z,10.44
2018-10-19T22:44:14.013Z,10.47
2018-10-19T22:46:43.690Z,10.43
2018-10-19T22:49:12.587Z,10.38
2018-10-19T22:51:41.442Z,10.38
2018-10-19T22:54:10.306Z,10.43
2018-10-19T22:56:39.055Z,10.43
2018-10-19T22:59:07.771Z,10.42
2018-10-19T23:01:36.482Z,10.41
2018-10-19T23:04:05.669Z,10.43
2018-10-19T23:06:34.453Z,10.38
2018-10-19T23:09:03.471Z,10.43
2018-10-19T23:11:33.277Z,10.40
2018-10-19T23:14:02.059Z,10.39
2018-10-19T23:16:32.024Z,10.28
2018-10-19T23:19:01.091Z,10.26
2018-10-19T23:21:29.784Z,10.28
2018-10-19T23:23:58.761Z,10.26
2018-10-19T23:26:27.371Z,10.27
2018-10-19T23:28:56.075Z,10.28
2018-10-19T23:31:25.116Z,10.26
2018-10-19T23:33:53.722Z,10.27
2018-10-19T23:36:22.393Z,10.23
2018-10-19T23:38:51.068Z,10.19
2018-10-19T23:41:19.765Z,10.18
2018-10-19T23:43:48.412Z,10.15
2018-10-19T23:46:16.963Z,10.08
2018-10-19T23:48:45.647Z,10.02
2018-10-19T23:51:14.392Z,9.99
2018-10-19T23:53:43.053Z,9.87
2018-10-19T23:56:11.680Z,9.88
2018-10-19T23:58:40.345Z,9.82
